Ingleside, Illinois
Current Conditions -  °F | °C
As of 10:55 PM on Monday 26 Jan 2015 (Local Time) from KUGN Reporting Station
Haze Haze  
Wind Chill: 26°   Ceiling: 2100
Heat Index: 26°   Visibility: 6mi
Dew Point: 24°   Wind: 0mph
Humidity: 92%   Direction: NA
Pressure: 29.9"   Gusts: NA
Location:  42.38°N, 88.14°W
Report Text: KUGN 270455Z AUTO 00000KT 6SM BR OVC021 M03/M04 A2990 RMK AO2 SLP141 T10331044
Loading
Personal Weather Stations






























Interactive Weather Map New forecast layout! Learn more

10-Day Weather Forecast

Advertisements
Track Severe Weather on mobile